sensor_id;sensor_type;location;lat;lon;timestamp;P1;durP1;ratioP1;P2;durP2;ratioP2
6354;SDS011;3210;48.708;9.030;2023-04-01T00:01:32;5.10;;;0.60;;
6354;SDS011;3210;48.708;9.030;2023-04-01T00:03:59;5.60;;;0.60;;
6354;SDS011;3210;48.708;9.030;2023-04-01T00:06:27;1.20;;;0.40;;
6354;SDS011;3210;48.708;9.030;2023-04-01T00:08:54;7.77;;;0.90;;
6354;SDS011;3210;48.708;9.030;2023-04-01T00:11:20;6.43;;;0.90;;
6354;SDS011;3210;48.708;9.030;2023-04-01T00:13:47;6.07;;;0.97;;
6354;SDS011;3210;48.708;9.030;2023-04-01T00:16:16;1.30;;;0.60;;
6354;SDS011;3210;48.708;9.030;2023-04-01T00:18:43;1.27;;;0.73;;
6354;SDS011;3210;48.708;9.030;2023-04-01T00:21:11;2.80;;;1.17;;
6354;SDS011;3210;48.708;9.030;2023-04-01T00:23:38;3.33;;;0.60;;
6354;SDS011;3210;48.708;9.030;2023-04-01T00:26:05;1.40;;;0.83;;
6354;SDS011;3210;48.708;9.030;2023-04-01T00:28:33;2.97;;;0.70;;
6354;SDS011;3210;48.708;9.030;2023-04-01T00:31:03;4.00;;;0.80;;
6354;SDS011;3210;48.708;9.030;2023-04-01T00:33:32;5.37;;;0.90;;
6354;SDS011;3210;48.708;9.030;2023-04-01T00:36:05;4.53;;;0.93;;
6354;SDS011;3210;48.708;9.030;2023-04-01T00:38:33;2.07;;;0.70;;
6354;SDS011;3210;48.708;9.030;2023-04-01T00:41:00;3.40;;;0.67;;
6354;SDS011;3210;48.708;9.030;2023-04-01T00:43:27;3.30;;;1.00;;
6354;SDS011;3210;48.708;9.030;2023-04-01T00:45:53;6.10;;;0.97;;
6354;SDS011;3210;48.708;9.030;2023-04-01T00:48:21;4.00;;;0.97;;
6354;SDS011;3210;48.708;9.030;2023-04-01T00:50:52;2.37;;;0.67;;
6354;SDS011;3210;48.708;9.030;2023-04-01T00:53:22;5.70;;;0.90;;
6354;SDS011;3210;48.708;9.030;2023-04-01T00:55:50;5.27;;;0.70;;
6354;SDS011;3210;48.708;9.030;2023-04-01T00:58:21;4.10;;;0.93;;
6354;SDS011;3210;48.708;9.030;2023-04-01T01:00:52;3.90;;;0.90;;
6354;SDS011;3210;48.708;9.030;2023-04-01T01:03:20;3.20;;;0.60;;
6354;SDS011;3210;48.708;9.030;2023-04-01T01:05:54;1.87;;;0.77;;
6354;SDS011;3210;48.708;9.030;2023-04-01T01:08:31;1.10;;;0.60;;
6354;SDS011;3210;48.708;9.030;2023-04-01T01:11:35;8.67;;;0.90;;
6354;SDS011;3210;48.708;9.030;2023-04-01T01:14:07;7.53;;;0.97;;
6354;SDS011;3210;48.708;9.030;2023-04-01T01:16:40;1.77;;;1.10;;
6354;SDS011;3210;48.708;9.030;2023-04-01T01:19:18;1.13;;;1.00;;
6354;SDS011;3210;48.708;9.030;2023-04-01T01:22:22;0.60;;;0.40;;
6354;SDS011;3210;48.708;9.030;2023-04-01T01:25:09;3.00;;;0.60;;
6354;SDS011;3210;48.708;9.030;2023-04-01T01:27:45;1.77;;;0.50;;
6354;SDS011;3210;48.708;9.030;2023-04-01T01:30:22;3.63;;;0.50;;
6354;SDS011;3210;48.708;9.030;2023-04-01T01:33:06;2.00;;;0.53;;
6354;SDS011;3210;48.708;9.030;2023-04-01T01:35:47;3.10;;;1.37;;
6354;SDS011;3210;48.708;9.030;2023-04-01T01:38:17;4.50;;;1.60;;
6354;SDS011;3210;48.708;9.030;2023-04-01T01:40:47;3.43;;;0.47;;
6354;SDS011;3210;48.708;9.030;2023-04-01T01:43:19;1.10;;;0.70;;
6354;SDS011;3210;48.708;9.030;2023-04-01T01:45:50;3.17;;;0.60;;
6354;SDS011;3210;48.708;9.030;2023-04-01T01:48:20;1.23;;;0.60;;
6354;SDS011;3210;48.708;9.030;2023-04-01T01:50:50;4.93;;;0.80;;
6354;SDS011;3210;48.708;9.030;2023-04-01T01:53:17;1.63;;;0.50;;
6354;SDS011;3210;48.708;9.030;2023-04-01T01:55:45;4.50;;;0.67;;
6354;SDS011;3210;48.708;9.030;2023-04-01T01:58:13;1.30;;;0.50;;
6354;SDS011;3210;48.708;9.030;2023-04-01T02:00:46;3.90;;;0.50;;
6354;SDS011;3210;48.708;9.030;2023-04-01T02:03:16;1.50;;;0.80;;
6354;SDS011;3210;48.708;9.030;2023-04-01T02:05:45;1.50;;;0.50;;
6354;SDS011;3210;48.708;9.030;2023-04-01T02:08:14;1.17;;;0.60;;
6354;SDS011;3210;48.708;9.030;2023-04-01T02:10:47;2.00;;;0.40;;
6354;SDS011;3210;48.708;9.030;2023-04-01T02:13:22;1.80;;;0.50;;
6354;SDS011;3210;48.708;9.030;2023-04-01T02:15:56;2.80;;;0.60;;
6354;SDS011;3210;48.708;9.030;2023-04-01T02:18:26;2.77;;;0.57;;
6354;SDS011;3210;48.708;9.030;2023-04-01T02:20:56;1.27;;;0.40;;
6354;SDS011;3210;48.708;9.030;2023-04-01T02:23:26;3.07;;;0.77;;
6354;SDS011;3210;48.708;9.030;2023-04-01T02:25:54;1.53;;;0.50;;
6354;SDS011;3210;48.708;9.030;2023-04-01T02:28:21;0.60;;;0.30;;
6354;SDS011;3210;48.708;9.030;2023-04-01T02:30:49;2.10;;;0.50;;
6354;SDS011;3210;48.708;9.030;2023-04-01T02:33:17;0.83;;;0.30;;
6354;SDS011;3210;48.708;9.030;2023-04-01T02:35:45;0.97;;;0.50;;
6354;SDS011;3210;48.708;9.030;2023-04-01T02:38:13;1.00;;;0.37;;
6354;SDS011;3210;48.708;9.030;2023-04-01T02:40:43;0.90;;;0.43;;
6354;SDS011;3210;48.708;9.030;2023-04-01T02:43:11;0.70;;;0.30;;
6354;SDS011;3210;48.708;9.030;2023-04-01T02:45:38;2.10;;;0.30;;
6354;SDS011;3210;48.708;9.030;2023-04-01T02:48:05;1.53;;;0.30;;
6354;SDS011;3210;48.708;9.030;2023-04-01T02:50:32;1.93;;;0.40;;
6354;SDS011;3210;48.708;9.030;2023-04-01T02:52:59;2.13;;;0.40;;
6354;SDS011;3210;48.708;9.030;2023-04-01T02:55:27;1.27;;;0.60;;
6354;SDS011;3210;48.708;9.030;2023-04-01T02:57:56;4.23;;;0.50;;
6354;SDS011;3210;48.708;9.030;2023-04-01T03:00:23;1.13;;;0.40;;
6354;SDS011;3210;48.708;9.030;2023-04-01T03:02:50;1.53;;;0.30;;
6354;SDS011;3210;48.708;9.030;2023-04-01T03:05:17;0.60;;;0.40;;
6354;SDS011;3210;48.708;9.030;2023-04-01T03:07:44;1.00;;;0.40;;
6354;SDS011;3210;48.708;9.030;2023-04-01T03:10:11;0.60;;;0.30;;
6354;SDS011;3210;48.708;9.030;2023-04-01T03:12:38;0.50;;;0.30;;
6354;SDS011;3210;48.708;9.030;2023-04-01T03:15:08;0.60;;;0.33;;
6354;SDS011;3210;48.708;9.030;2023-04-01T03:17:36;4.67;;;0.53;;
6354;SDS011;3210;48.708;9.030;2023-04-01T03:20:03;1.70;;;0.47;;
6354;SDS011;3210;48.708;9.030;2023-04-01T03:22:30;1.17;;;0.40;;
6354;SDS011;3210;48.708;9.030;2023-04-01T03:24:57;4.10;;;0.60;;
6354;SDS011;3210;48.708;9.030;2023-04-01T03:27:24;1.17;;;0.40;;
6354;SDS011;3210;48.708;9.030;2023-04-01T03:29:51;2.40;;;0.40;;
6354;SDS011;3210;48.708;9.030;2023-04-01T03:32:19;3.93;;;0.40;;
6354;SDS011;3210;48.708;9.030;2023-04-01T03:34:46;1.20;;;0.50;;
6354;SDS011;3210;48.708;9.030;2023-04-01T03:37:13;0.70;;;0.53;;
6354;SDS011;3210;48.708;9.030;2023-04-01T03:39:40;1.17;;;0.50;;
6354;SDS011;3210;48.708;9.030;2023-04-01T03:42:07;3.33;;;0.43;;
6354;SDS011;3210;48.708;9.030;2023-04-01T03:44:33;0.80;;;0.43;;
6354;SDS011;3210;48.708;9.030;2023-04-01T03:47:00;1.47;;;0.50;;
6354;SDS011;3210;48.708;9.030;2023-04-01T03:49:29;2.50;;;0.47;;
6354;SDS011;3210;48.708;9.030;2023-04-01T03:51:57;0.70;;;0.40;;
6354;SDS011;3210;48.708;9.030;2023-04-01T03:54:24;1.00;;;0.40;;
6354;SDS011;3210;48.708;9.030;2023-04-01T03:56:50;5.03;;;0.50;;
6354;SDS011;3210;48.708;9.030;2023-04-01T03:59:17;0.73;;;0.43;;
6354;SDS011;3210;48.708;9.030;2023-04-01T04:01:45;2.87;;;1.03;;
6354;SDS011;3210;48.708;9.030;2023-04-01T04:04:12;1.50;;;0.80;;
6354;SDS011;3210;48.708;9.030;2023-04-01T04:06:41;1.37;;;0.70;;
6354;SDS011;3210;48.708;9.030;2023-04-01T04:09:07;3.47;;;0.63;;
6354;SDS011;3210;48.708;9.030;2023-04-01T04:11:34;2.70;;;0.50;;
6354;SDS011;3210;48.708;9.030;2023-04-01T04:14:01;3.53;;;0.40;;
6354;SDS011;3210;48.708;9.030;2023-04-01T04:16:28;2.10;;;0.63;;
6354;SDS011;3210;48.708;9.030;2023-04-01T04:18:54;1.30;;;0.47;;
6354;SDS011;3210;48.708;9.030;2023-04-01T04:21:21;1.93;;;0.50;;
6354;SDS011;3210;48.708;9.030;2023-04-01T04:23:49;0.73;;;0.50;;
6354;SDS011;3210;48.708;9.030;2023-04-01T04:26:16;0.80;;;0.50;;
6354;SDS011;3210;48.708;9.030;2023-04-01T04:28:43;1.17;;;0.30;;
6354;SDS011;3210;48.708;9.030;2023-04-01T04:31:10;7.83;;;0.60;;
6354;SDS011;3210;48.708;9.030;2023-04-01T04:33:37;0.80;;;0.40;;
6354;SDS011;3210;48.708;9.030;2023-04-01T04:36:04;2.03;;;0.93;;
6354;SDS011;3210;48.708;9.030;2023-04-01T04:38:31;4.10;;;0.80;;
6354;SDS011;3210;48.708;9.030;2023-04-01T04:40:59;5.47;;;2.27;;
6354;SDS011;3210;48.708;9.030;2023-04-01T04:43:26;9.07;;;3.07;;
6354;SDS011;3210;48.708;9.030;2023-04-01T04:45:53;7.40;;;2.40;;
6354;SDS011;3210;48.708;9.030;2023-04-01T04:48:20;8.40;;;2.30;;
6354;SDS011;3210;48.708;9.030;2023-04-01T04:50:47;9.73;;;2.57;;
6354;SDS011;3210;48.708;9.030;2023-04-01T04:53:15;4.10;;;1.10;;
6354;SDS011;3210;48.708;9.030;2023-04-01T04:55:42;4.40;;;1.77;;
6354;SDS011;3210;48.708;9.030;2023-04-01T04:58:12;3.33;;;1.07;;
6354;SDS011;3210;48.708;9.030;2023-04-01T05:00:39;5.30;;;1.10;;
6354;SDS011;3210;48.708;9.030;2023-04-01T05:03:06;4.97;;;0.80;;
6354;SDS011;3210;48.708;9.030;2023-04-01T05:05:33;0.87;;;0.43;;
6354;SDS011;3210;48.708;9.030;2023-04-01T05:08:00;1.80;;;0.60;;
6354;SDS011;3210;48.708;9.030;2023-04-01T05:10:27;7.23;;;0.60;;
6354;SDS011;3210;48.708;9.030;2023-04-01T05:12:55;4.30;;;1.30;;
6354;SDS011;3210;48.708;9.030;2023-04-01T05:15:23;1.37;;;0.90;;
6354;SDS011;3210;48.708;9.030;2023-04-01T05:17:50;2.00;;;0.53;;
6354;SDS011;3210;48.708;9.030;2023-04-01T05:20:17;1.87;;;0.60;;
6354;SDS011;3210;48.708;9.030;2023-04-01T05:22:44;3.00;;;1.47;;
6354;SDS011;3210;48.708;9.030;2023-04-01T05:25:11;3.57;;;1.00;;
6354;SDS011;3210;48.708;9.030;2023-04-01T05:27:37;3.07;;;1.43;;
6354;SDS011;3210;48.708;9.030;2023-04-01T05:30:05;7.47;;;1.23;;
6354;SDS011;3210;48.708;9.030;2023-04-01T05:32:34;1.40;;;0.80;;
6354;SDS011;3210;48.708;9.030;2023-04-01T05:35:00;2.20;;;0.77;;
6354;SDS011;3210;48.708;9.030;2023-04-01T05:37:27;2.43;;;1.10;;
6354;SDS011;3210;48.708;9.030;2023-04-01T05:39:54;5.43;;;0.87;;
6354;SDS011;3210;48.708;9.030;2023-04-01T05:42:21;1.33;;;0.80;;
6354;SDS011;3210;48.708;9.030;2023-04-01T05:44:47;1.80;;;0.73;;
6354;SDS011;3210;48.708;9.030;2023-04-01T05:47:14;7.87;;;2.17;;
6354;SDS011;3210;48.708;9.030;2023-04-01T05:49:42;2.33;;;1.20;;
6354;SDS011;3210;48.708;9.030;2023-04-01T05:52:09;5.17;;;1.90;;
6354;SDS011;3210;48.708;9.030;2023-04-01T05:54:36;4.33;;;1.57;;
6354;SDS011;3210;48.708;9.030;2023-04-01T05:57:02;1.80;;;1.13;;
6354;SDS011;3210;48.708;9.030;2023-04-01T05:59:29;0.70;;;0.40;;
6354;SDS011;3210;48.708;9.030;2023-04-01T06:01:57;8.83;;;0.80;;
6354;SDS011;3210;48.708;9.030;2023-04-01T06:04:24;2.67;;;0.90;;
6354;SDS011;3210;48.708;9.030;2023-04-01T06:06:52;10.80;;;3.40;;
6354;SDS011;3210;48.708;9.030;2023-04-01T06:09:20;3.57;;;0.93;;
6354;SDS011;3210;48.708;9.030;2023-04-01T06:12:07;3.17;;;1.00;;
6354;SDS011;3210;48.708;9.030;2023-04-01T06:14:46;2.03;;;0.97;;
6354;SDS011;3210;48.708;9.030;2023-04-01T06:17:21;2.30;;;0.83;;
6354;SDS011;3210;48.708;9.030;2023-04-01T06:19:57;2.40;;;0.60;;
6354;SDS011;3210;48.708;9.030;2023-04-01T06:22:41;3.43;;;0.67;;
6354;SDS011;3210;48.708;9.030;2023-04-01T06:31:38;3.77;;;0.70;;
6354;SDS011;3210;48.708;9.030;2023-04-01T06:34:21;2.07;;;0.70;;
6354;SDS011;3210;48.708;9.030;2023-04-01T06:37:03;0.90;;;0.40;;
6354;SDS011;3210;48.708;9.030;2023-04-01T06:39:52;4.63;;;0.90;;
6354;SDS011;3210;48.708;9.030;2023-04-01T06:42:41;0.60;;;0.30;;
6354;SDS011;3210;48.708;9.030;2023-04-01T06:45:29;3.60;;;0.60;;
6354;SDS011;3210;48.708;9.030;2023-04-01T06:48:08;0.63;;;0.40;;
6354;SDS011;3210;48.708;9.030;2023-04-01T06:50:48;0.80;;;0.40;;
6354;SDS011;3210;48.708;9.030;2023-04-01T06:53:24;3.53;;;0.50;;
6354;SDS011;3210;48.708;9.030;2023-04-01T06:55:59;1.63;;;0.60;;
6354;SDS011;3210;48.708;9.030;2023-04-01T06:58:34;1.83;;;0.60;;
6354;SDS011;3210;48.708;9.030;2023-04-01T07:01:06;4.10;;;0.60;;
6354;SDS011;3210;48.708;9.030;2023-04-01T07:03:36;1.87;;;0.50;;
6354;SDS011;3210;48.708;9.030;2023-04-01T07:06:08;1.77;;;0.57;;
6354;SDS011;3210;48.708;9.030;2023-04-01T07:08:39;2.23;;;0.60;;
6354;SDS011;3210;48.708;9.030;2023-04-01T07:11:10;4.33;;;1.23;;
6354;SDS011;3210;48.708;9.030;2023-04-01T07:13:43;6.00;;;1.00;;
6354;SDS011;3210;48.708;9.030;2023-04-01T07:16:15;1.57;;;0.53;;
6354;SDS011;3210;48.708;9.030;2023-04-01T07:18:46;3.93;;;0.90;;
6354;SDS011;3210;48.708;9.030;2023-04-01T07:21:19;1.40;;;0.50;;
6354;SDS011;3210;48.708;9.030;2023-04-01T07:23:52;1.87;;;0.70;;
6354;SDS011;3210;48.708;9.030;2023-04-01T07:26:25;3.73;;;0.83;;
6354;SDS011;3210;48.708;9.030;2023-04-01T07:28:52;1.20;;;0.53;;
6354;SDS011;3210;48.708;9.030;2023-04-01T07:31:23;2.80;;;1.20;;
6354;SDS011;3210;48.708;9.030;2023-04-01T07:34:05;4.87;;;0.70;;
6354;SDS011;3210;48.708;9.030;2023-04-01T07:36:38;4.40;;;1.20;;
6354;SDS011;3210;48.708;9.030;2023-04-01T07:39:11;1.60;;;0.83;;
6354;SDS011;3210;48.708;9.030;2023-04-01T07:41:53;3.57;;;1.63;;
6354;SDS011;3210;48.708;9.030;2023-04-01T07:44:28;2.60;;;1.33;;
6354;SDS011;3210;48.708;9.030;2023-04-01T07:47:10;3.40;;;1.30;;
6354;SDS011;3210;48.708;9.030;2023-04-01T07:49:52;2.70;;;1.27;;
6354;SDS011;3210;48.708;9.030;2023-04-01T07:52:29;7.20;;;2.80;;
6354;SDS011;3210;48.708;9.030;2023-04-01T07:55:04;4.37;;;2.10;;
6354;SDS011;3210;48.708;9.030;2023-04-01T07:57:41;1.97;;;0.73;;
6354;SDS011;3210;48.708;9.030;2023-04-01T08:00:15;3.50;;;0.77;;
6354;SDS011;3210;48.708;9.030;2023-04-01T08:02:53;1.00;;;0.90;;
6354;SDS011;3210;48.708;9.030;2023-04-01T08:05:33;2.23;;;0.70;;
6354;SDS011;3210;48.708;9.030;2023-04-01T08:08:08;3.73;;;0.60;;
6354;SDS011;3210;48.708;9.030;2023-04-01T08:10:44;1.73;;;0.60;;
6354;SDS011;3210;48.708;9.030;2023-04-01T08:13:20;2.57;;;0.60;;
6354;SDS011;3210;48.708;9.030;2023-04-01T08:15:55;2.70;;;0.70;;
6354;SDS011;3210;48.708;9.030;2023-04-01T08:18:32;0.93;;;0.50;;
6354;SDS011;3210;48.708;9.030;2023-04-01T08:21:05;1.20;;;0.50;;
6354;SDS011;3210;48.708;9.030;2023-04-01T08:23:38;0.80;;;0.40;;
6354;SDS011;3210;48.708;9.030;2023-04-01T08:26:10;1.77;;;0.47;;
6354;SDS011;3210;48.708;9.030;2023-04-01T08:28:55;1.20;;;0.60;;
6354;SDS011;3210;48.708;9.030;2023-04-01T08:31:35;1.23;;;0.50;;
6354;SDS011;3210;48.708;9.030;2023-04-01T08:34:10;2.40;;;0.60;;
6354;SDS011;3210;48.708;9.030;2023-04-01T08:36:43;4.87;;;0.70;;
6354;SDS011;3210;48.708;9.030;2023-04-01T08:39:15;1.27;;;0.60;;
6354;SDS011;3210;48.708;9.030;2023-04-01T08:41:59;1.60;;;0.73;;
6354;SDS011;3210;48.708;9.030;2023-04-01T08:44:59;3.73;;;0.70;;
6354;SDS011;3210;48.708;9.030;2023-04-01T08:47:52;1.57;;;0.50;;
6354;SDS011;3210;48.708;9.030;2023-04-01T08:53:52;1.50;;;0.47;;
6354;SDS011;3210;48.708;9.030;2023-04-01T08:56:36;0.80;;;0.50;;
6354;SDS011;3210;48.708;9.030;2023-04-01T08:59:12;1.00;;;0.60;;
6354;SDS011;3210;48.708;9.030;2023-04-01T09:02:00;1.90;;;0.80;;
6354;SDS011;3210;48.708;9.030;2023-04-01T09:04:55;3.57;;;0.80;;
6354;SDS011;3210;48.708;9.030;2023-04-01T09:07:39;7.77;;;1.50;;
6354;SDS011;3210;48.708;9.030;2023-04-01T09:10:14;1.97;;;0.93;;
6354;SDS011;3210;48.708;9.030;2023-04-01T09:12:52;1.00;;;0.70;;
6354;SDS011;3210;48.708;9.030;2023-04-01T09:15:37;2.43;;;1.40;;
6354;SDS011;3210;48.708;9.030;2023-04-01T09:18:46;1.40;;;0.70;;
6354;SDS011;3210;48.708;9.030;2023-04-01T09:21:46;0.87;;;0.57;;
6354;SDS011;3210;48.708;9.030;2023-04-01T09:24:42;1.30;;;0.50;;
6354;SDS011;3210;48.708;9.030;2023-04-01T09:27:28;0.70;;;0.40;;
6354;SDS011;3210;48.708;9.030;2023-04-01T09:36:14;0.87;;;0.60;;
6354;SDS011;3210;48.708;9.030;2023-04-01T09:38:56;1.40;;;0.60;;
6354;SDS011;3210;48.708;9.030;2023-04-01T09:41:28;0.97;;;0.40;;
6354;SDS011;3210;48.708;9.030;2023-04-01T09:44:02;0.70;;;0.40;;
6354;SDS011;3210;48.708;9.030;2023-04-01T09:46:47;1.00;;;0.40;;
6354;SDS011;3210;48.708;9.030;2023-04-01T09:49:27;0.60;;;0.37;;
6354;SDS011;3210;48.708;9.030;2023-04-01T09:52:20;0.60;;;0.40;;
6354;SDS011;3210;48.708;9.030;2023-04-01T09:54:58;0.97;;;0.50;;
6354;SDS011;3210;48.708;9.030;2023-04-01T10:00:49;0.60;;;0.33;;
6354;SDS011;3210;48.708;9.030;2023-04-01T10:03:53;0.70;;;0.40;;
6354;SDS011;3210;48.708;9.030;2023-04-01T10:07:17;0.60;;;0.30;;
6354;SDS011;3210;48.708;9.030;2023-04-01T10:10:13;0.60;;;0.30;;
6354;SDS011;3210;48.708;9.030;2023-04-01T10:16:11;2.10;;;0.50;;
6354;SDS011;3210;48.708;9.030;2023-04-01T10:21:53;0.60;;;0.40;;
6354;SDS011;3210;48.708;9.030;2023-04-01T10:24:56;0.70;;;0.47;;
6354;SDS011;3210;48.708;9.030;2023-04-01T10:31:02;0.97;;;0.40;;
6354;SDS011;3210;48.708;9.030;2023-04-01T10:34:01;1.00;;;0.40;;
6354;SDS011;3210;48.708;9.030;2023-04-01T10:36:52;0.70;;;0.40;;
6354;SDS011;3210;48.708;9.030;2023-04-01T10:39:29;0.60;;;0.30;;
6354;SDS011;3210;48.708;9.030;2023-04-01T10:48:24;0.60;;;0.30;;
6354;SDS011;3210;48.708;9.030;2023-04-01T10:51:19;2.30;;;0.70;;
6354;SDS011;3210;48.708;9.030;2023-04-01T10:54:06;0.50;;;0.20;;
6354;SDS011;3210;48.708;9.030;2023-04-01T10:56:45;0.60;;;0.30;;
6354;SDS011;3210;48.708;9.030;2023-04-01T11:06:08;2.10;;;0.40;;
6354;SDS011;3210;48.708;9.030;2023-04-01T11:12:12;0.60;;;0.50;;
6354;SDS011;3210;48.708;9.030;2023-04-01T11:21:29;1.47;;;0.60;;
6354;SDS011;3210;48.708;9.030;2023-04-01T11:24:19;0.90;;;0.50;;
6354;SDS011;3210;48.708;9.030;2023-04-01T11:26:59;0.50;;;0.30;;
6354;SDS011;3210;48.708;9.030;2023-04-01T11:29:40;0.90;;;0.50;;
6354;SDS011;3210;48.708;9.030;2023-04-01T11:32:20;2.23;;;0.50;;
6354;SDS011;3210;48.708;9.030;2023-04-01T11:34:57;0.90;;;0.30;;
6354;SDS011;3210;48.708;9.030;2023-04-01T11:37:48;0.63;;;0.40;;
6354;SDS011;3210;48.708;9.030;2023-04-01T11:40:25;0.80;;;0.50;;
6354;SDS011;3210;48.708;9.030;2023-04-01T11:43:00;0.70;;;0.40;;
6354;SDS011;3210;48.708;9.030;2023-04-01T11:45:35;1.17;;;0.43;;
6354;SDS011;3210;48.708;9.030;2023-04-01T11:48:12;0.97;;;0.50;;
6354;SDS011;3210;48.708;9.030;2023-04-01T11:53:53;0.50;;;0.20;;
6354;SDS011;3210;48.708;9.030;2023-04-01T11:56:33;0.60;;;0.40;;
6354;SDS011;3210;48.708;9.030;2023-04-01T12:02:29;0.60;;;0.37;;
6354;SDS011;3210;48.708;9.030;2023-04-01T12:05:14;1.00;;;0.30;;
6354;SDS011;3210;48.708;9.030;2023-04-01T12:07:53;5.23;;;0.30;;
6354;SDS011;3210;48.708;9.030;2023-04-01T12:10:36;0.60;;;0.30;;
6354;SDS011;3210;48.708;9.030;2023-04-01T12:13:07;0.60;;;0.30;;
6354;SDS011;3210;48.708;9.030;2023-04-01T12:15:47;0.80;;;0.67;;
6354;SDS011;3210;48.708;9.030;2023-04-01T12:18:23;0.60;;;0.30;;
6354;SDS011;3210;48.708;9.030;2023-04-01T12:21:00;0.70;;;0.50;;
6354;SDS011;3210;48.708;9.030;2023-04-01T12:23:44;0.80;;;0.43;;
6354;SDS011;3210;48.708;9.030;2023-04-01T12:26:46;2.60;;;0.47;;
6354;SDS011;3210;48.708;9.030;2023-04-01T12:29:34;1.23;;;0.30;;
6354;SDS011;3210;48.708;9.030;2023-04-01T12:32:16;0.53;;;0.30;;
6354;SDS011;3210;48.708;9.030;2023-04-01T12:34:57;0.53;;;0.30;;
6354;SDS011;3210;48.708;9.030;2023-04-01T12:37:39;0.80;;;0.30;;
6354;SDS011;3210;48.708;9.030;2023-04-01T12:43:21;0.60;;;0.50;;
6354;SDS011;3210;48.708;9.030;2023-04-01T12:46:11;2.80;;;0.73;;
6354;SDS011;3210;48.708;9.030;2023-04-01T12:51:49;1.10;;;0.80;;
6354;SDS011;3210;48.708;9.030;2023-04-01T12:54:37;0.50;;;0.30;;
6354;SDS011;3210;48.708;9.030;2023-04-01T13:00:30;0.60;;;0.30;;
6354;SDS011;3210;48.708;9.030;2023-04-01T13:03:11;2.50;;;0.37;;
6354;SDS011;3210;48.708;9.030;2023-04-01T13:08:52;0.80;;;0.40;;
6354;SDS011;3210;48.708;9.030;2023-04-01T13:11:30;6.23;;;0.50;;
6354;SDS011;3210;48.708;9.030;2023-04-01T13:14:15;1.80;;;0.63;;
6354;SDS011;3210;48.708;9.030;2023-04-01T13:16:56;1.50;;;0.73;;
6354;SDS011;3210;48.708;9.030;2023-04-01T13:19:30;0.60;;;0.37;;
6354;SDS011;3210;48.708;9.030;2023-04-01T13:22:04;0.60;;;0.30;;
6354;SDS011;3210;48.708;9.030;2023-04-01T13:24:37;0.60;;;0.30;;
6354;SDS011;3210;48.708;9.030;2023-04-01T13:27:12;0.50;;;0.30;;
6354;SDS011;3210;48.708;9.030;2023-04-01T13:29:46;0.60;;;0.30;;
6354;SDS011;3210;48.708;9.030;2023-04-01T13:32:26;0.57;;;0.30;;
6354;SDS011;3210;48.708;9.030;2023-04-01T13:35:04;2.63;;;0.50;;
6354;SDS011;3210;48.708;9.030;2023-04-01T13:37:47;1.33;;;0.60;;
6354;SDS011;3210;48.708;9.030;2023-04-01T13:40:33;2.20;;;0.50;;
6354;SDS011;3210;48.708;9.030;2023-04-01T13:43:04;2.03;;;0.43;;
6354;SDS011;3210;48.708;9.030;2023-04-01T13:45:41;0.60;;;0.30;;
6354;SDS011;3210;48.708;9.030;2023-04-01T13:48:28;0.70;;;0.30;;
6354;SDS011;3210;48.708;9.030;2023-04-01T13:51:15;0.60;;;0.30;;
6354;SDS011;3210;48.708;9.030;2023-04-01T13:54:09;1.03;;;0.40;;
6354;SDS011;3210;48.708;9.030;2023-04-01T13:56:57;0.60;;;0.40;;
6354;SDS011;3210;48.708;9.030;2023-04-01T13:59:40;0.70;;;0.60;;
6354;SDS011;3210;48.708;9.030;2023-04-01T14:02:45;0.50;;;0.30;;
6354;SDS011;3210;48.708;9.030;2023-04-01T14:08:20;0.60;;;0.40;;
6354;SDS011;3210;48.708;9.030;2023-04-01T14:10:58;0.60;;;0.40;;
6354;SDS011;3210;48.708;9.030;2023-04-01T14:13:38;0.70;;;0.50;;
6354;SDS011;3210;48.708;9.030;2023-04-01T14:16:13;0.80;;;0.37;;
6354;SDS011;3210;48.708;9.030;2023-04-01T14:18:52;0.60;;;0.30;;
6354;SDS011;3210;48.708;9.030;2023-04-01T14:21:34;1.20;;;1.03;;
6354;SDS011;3210;48.708;9.030;2023-04-01T14:27:28;0.70;;;0.50;;
6354;SDS011;3210;48.708;9.030;2023-04-01T14:33:04;3.20;;;2.10;;
6354;SDS011;3210;48.708;9.030;2023-04-01T14:35:38;1.17;;;0.67;;
6354;SDS011;3210;48.708;9.030;2023-04-01T14:38:27;0.70;;;0.50;;
6354;SDS011;3210;48.708;9.030;2023-04-01T14:41:02;0.70;;;0.43;;
6354;SDS011;3210;48.708;9.030;2023-04-01T14:49:46;2.30;;;0.40;;
6354;SDS011;3210;48.708;9.030;2023-04-01T14:52:16;2.17;;;1.60;;
6354;SDS011;3210;48.708;9.030;2023-04-01T14:54:50;2.60;;;1.50;;
6354;SDS011;3210;48.708;9.030;2023-04-01T14:57:22;0.70;;;0.50;;
6354;SDS011;3210;48.708;9.030;2023-04-01T14:59:51;0.73;;;0.50;;
6354;SDS011;3210;48.708;9.030;2023-04-01T15:02:33;1.27;;;0.50;;
6354;SDS011;3210;48.708;9.030;2023-04-01T15:05:12;2.10;;;1.20;;
6354;SDS011;3210;48.708;9.030;2023-04-01T15:13:46;1.37;;;0.90;;
6354;SDS011;3210;48.708;9.030;2023-04-01T15:16:27;1.00;;;0.50;;
6354;SDS011;3210;48.708;9.030;2023-04-01T15:19:03;1.00;;;0.70;;
6354;SDS011;3210;48.708;9.030;2023-04-01T15:21:44;1.03;;;0.80;;
6354;SDS011;3210;48.708;9.030;2023-04-01T15:24:24;1.03;;;0.93;;
6354;SDS011;3210;48.708;9.030;2023-04-01T15:26:55;1.90;;;1.17;;
6354;SDS011;3210;48.708;9.030;2023-04-01T15:29:42;4.20;;;1.77;;
6354;SDS011;3210;48.708;9.030;2023-04-01T15:32:26;1.50;;;1.00;;
6354;SDS011;3210;48.708;9.030;2023-04-01T15:34:59;1.47;;;0.93;;
6354;SDS011;3210;48.708;9.030;2023-04-01T15:37:42;1.00;;;0.90;;
6354;SDS011;3210;48.708;9.030;2023-04-01T15:40:19;2.47;;;1.40;;
6354;SDS011;3210;48.708;9.030;2023-04-01T15:42:55;2.40;;;1.77;;
6354;SDS011;3210;48.708;9.030;2023-04-01T15:45:34;0.97;;;0.70;;
6354;SDS011;3210;48.708;9.030;2023-04-01T15:48:13;0.80;;;0.53;;
6354;SDS011;3210;48.708;9.030;2023-04-01T15:50:53;1.40;;;0.53;;
6354;SDS011;3210;48.708;9.030;2023-04-01T15:53:30;6.23;;;1.10;;
6354;SDS011;3210;48.708;9.030;2023-04-01T15:56:17;1.23;;;0.60;;
6354;SDS011;3210;48.708;9.030;2023-04-01T15:58:54;2.90;;;1.30;;
6354;SDS011;3210;48.708;9.030;2023-04-01T16:01:37;3.30;;;2.10;;
6354;SDS011;3210;48.708;9.030;2023-04-01T16:04:17;2.87;;;1.60;;
6354;SDS011;3210;48.708;9.030;2023-04-01T16:07:03;1.00;;;0.87;;
6354;SDS011;3210;48.708;9.030;2023-04-01T16:12:36;2.93;;;1.87;;
6354;SDS011;3210;48.708;9.030;2023-04-01T16:15:18;5.47;;;1.43;;
6354;SDS011;3210;48.708;9.030;2023-04-01T16:18:06;3.20;;;2.07;;
6354;SDS011;3210;48.708;9.030;2023-04-01T16:20:45;3.67;;;2.20;;
6354;SDS011;3210;48.708;9.030;2023-04-01T16:23:18;4.67;;;3.23;;
6354;SDS011;3210;48.708;9.030;2023-04-01T16:25:51;3.93;;;1.73;;
6354;SDS011;3210;48.708;9.030;2023-04-01T16:28:27;2.40;;;1.63;;
6354;SDS011;3210;48.708;9.030;2023-04-01T16:30:57;3.37;;;2.17;;
6354;SDS011;3210;48.708;9.030;2023-04-01T16:33:34;2.13;;;1.20;;
6354;SDS011;3210;48.708;9.030;2023-04-01T16:36:08;2.80;;;1.10;;
6354;SDS011;3210;48.708;9.030;2023-04-01T16:38:41;2.70;;;1.50;;
6354;SDS011;3210;48.708;9.030;2023-04-01T16:41:16;4.10;;;1.20;;
6354;SDS011;3210;48.708;9.030;2023-04-01T16:43:46;0.77;;;0.67;;
6354;SDS011;3210;48.708;9.030;2023-04-01T16:46:32;2.50;;;0.50;;
6354;SDS011;3210;48.708;9.030;2023-04-01T16:49:09;0.90;;;0.60;;
6354;SDS011;3210;48.708;9.030;2023-04-01T16:52:00;1.40;;;0.90;;
6354;SDS011;3210;48.708;9.030;2023-04-01T16:54:40;1.10;;;0.70;;
6354;SDS011;3210;48.708;9.030;2023-04-01T16:57:15;1.37;;;0.60;;
6354;SDS011;3210;48.708;9.030;2023-04-01T16:59:46;1.37;;;0.40;;
6354;SDS011;3210;48.708;9.030;2023-04-01T17:02:20;1.27;;;0.90;;
6354;SDS011;3210;48.708;9.030;2023-04-01T17:04:57;0.90;;;0.50;;
6354;SDS011;3210;48.708;9.030;2023-04-01T17:07:28;1.63;;;0.73;;
6354;SDS011;3210;48.708;9.030;2023-04-01T17:10:13;2.80;;;0.77;;
6354;SDS011;3210;48.708;9.030;2023-04-01T17:12:58;1.03;;;0.50;;
6354;SDS011;3210;48.708;9.030;2023-04-01T17:15:52;3.13;;;0.73;;
6354;SDS011;3210;48.708;9.030;2023-04-01T17:18:27;1.07;;;0.97;;
6354;SDS011;3210;48.708;9.030;2023-04-01T17:21:05;2.50;;;1.40;;
6354;SDS011;3210;48.708;9.030;2023-04-01T17:23:37;1.07;;;0.90;;
6354;SDS011;3210;48.708;9.030;2023-04-01T17:26:13;4.73;;;0.70;;
6354;SDS011;3210;48.708;9.030;2023-04-01T17:28:50;1.43;;;0.77;;
6354;SDS011;3210;48.708;9.030;2023-04-01T17:31:31;1.60;;;0.93;;
6354;SDS011;3210;48.708;9.030;2023-04-01T17:34:13;2.37;;;1.50;;
6354;SDS011;3210;48.708;9.030;2023-04-01T17:37:15;7.50;;;1.80;;
6354;SDS011;3210;48.708;9.030;2023-04-01T17:39:56;1.93;;;1.63;;
6354;SDS011;3210;48.708;9.030;2023-04-01T17:42:39;1.90;;;1.00;;